Terminal Aerodrome Forecast
Issued by NWS Wilmington, OH

Current Version | Previous Version | Text Only | Print | Product List | Glossary Off
Versions: 1 2 3 4 5 6 7 8 9 10 11 12 13 14 15 16 17 18 19 20 21 22 23 24 25 26 27

000
FTUS41 KILN 252100 AAB
TAFDAY
TAF AMD
KDAY 252121Z 2521/2618 30008KT P6SM OVC022
     FM260000 34004KT P6SM OVC015
     FM260600 VRB03KT P6SM BKN025
     FM261400 08005KT P6SM SCT035=

USA.gov is the U.S. government's official web portal to all federal, state and local government web resources and services.